Dr.kaiyo — JD2325 — position and weather

sailwx.info

Track history (hours):
 
Tides and Currents Weather Stations Pressure Air Temp Water Temp Dewpoint Dewpoint Depression Visibility Wind Speed Wind Dir Waves Ship Positions

Dr.kaiyo

Last reported at 2017-Mar-16 05:06 UTC. Time now 2017-Mar-28 02:25 UTC.
Position N 34°41' E 135°12'.
Warning: this ship's position is 11 days out of date.

Length 31 m.

Type: Other ship. MMSI: 431301823.

Date/timePositionNaut miles runAvg speedWind from/ knotsBaromVisibWave heightAir tempDewpointWater temp
2017-Mar-16 05:06N 34°41' E 135°12'4 7.2
2017-Mar-16 04:33N 34°39' E 135°16'4 3.8
2017-Mar-16 03:33N 34°41' E 135°20'2 2.4
2017-Mar-16 02:33N 34°39' E 135°19'1111.2
2017-Mar-16 01:33N 34°29' E 135°13'1110.7
2017-Mar-16 00:33N 34°39' E 135°11'2 2.4
2017-Mar-15 23:33N 34°41' E 135°12'0 0.0
2017-Mar-15 05:04N 34°41' E 135°12'3 5.4
2017-Mar-15 04:33N 34°41' E 135°16'3 3.3
2017-Mar-15 03:33N 34°42' E 135°19'3 3.1
2017-Mar-15 02:33N 34°38' E 135°19'1313.4
2017-Mar-15 01:33N 34°28' E 135°09'7 6.8
2017-Mar-15 00:33N 34°34' E 135°05'10 9.7
2017-Mar-14 23:33N 34°41' E 135°12'3 0.2
2017-Mar-14 05:33N 34°40' E 135°15'7 6.7
2017-Mar-14 04:33N 34°36' E 135°08'10 9.7
2017-Mar-14 03:32N 34°29' E 135°00'6 6.6
2017-Mar-14 02:33N 34°30' E 135°08'7 6.8
2017-Mar-14 01:32N 34°30' E 135°16'8 8.4
2017-Mar-14 00:33N 34°37' E 135°20'6 6.4
2017-Mar-13 23:33N 34°41' E 135°14'2 1.6
2017-Mar-13 22:33N 34°41' E 135°12'  
2017-Mar-10 05:33N 34°40' E 135°12'9 8.8
2017-Mar-10 04:33N 34°32' E 135°15'5 4.8
2017-Mar-10 03:31N 34°32' E 135°21'3 2.5
2017-Mar-10 02:29N 34°30' E 135°19'8 7.5
2017-Mar-10 01:24N 34°28' E 135°10'1112.4
2017-Mar-10 00:33N 34°39' E 135°11'3 2.7
2017-Mar-09 23:33N 34°41' E 135°12'0 0.0
2017-Mar-09 05:11N 34°41' E 135°12'3 5.0
2017-Mar-09 04:33N 34°41' E 135°16'3 3.1
2017-Mar-09 03:33N 34°41' E 135°20'3 3.0
2017-Mar-09 02:33N 34°41' E 135°16'4 4.2
2017-Mar-09 01:33N 34°38' E 135°20'8 7.4
2017-Mar-09 00:33N 34°39' E 135°11'3 0.1
2017-Mar-08 05:10N 34°41' E 135°12'3 5.1
2017-Mar-08 04:33N 34°41' E 135°16'3 3.4
2017-Mar-08 03:33N 34°41' E 135°20'2 1.8
2017-Mar-08 02:33N 34°40' E 135°19'1211.7
2017-Mar-08 01:33N 34°29' E 135°14'1110.6
2017-Mar-08 00:33N 34°39' E 135°11'2 2.3
2017-Mar-07 23:33N 34°41' E 135°12'0 0.0
2017-Mar-07 04:24N 34°41' E 135°12'6 7.6
2017-Mar-07 03:33N 34°41' E 135°20'0 0.0
2017-Mar-07 02:33N 34°41' E 135°20'3 2.6
2017-Mar-07 01:33N 34°39' E 135°19'6 6.3
2017-Mar-07 00:33N 34°41' E 135°12'  
Track history (hours):
 
Tides and Currents Weather Stations Pressure Air Temp Water Temp Dewpoint Dewpoint Depression Visibility Wind Speed Wind Dir Waves Ship Positions

Dr.kaiyo

Last reported at 2017-Mar-16 05:06 UTC. Time now 2017-Mar-28 02:25 UTC.
Position N 34°41' E 135°12'.
Warning: this ship's position is 11 days out of date.

Length 31 m.

Type: Other ship. MMSI: 431301823.

Date/timePositionNaut miles runAvg speedWind from/ knotsBaromVisibWave heightAir tempDewpointWater temp
2017-Mar-16 05:06N 34°41' E 135°12'4 7.2
2017-Mar-16 04:33N 34°39' E 135°16'4 3.8
2017-Mar-16 03:33N 34°41' E 135°20'2 2.4
2017-Mar-16 02:33N 34°39' E 135°19'1111.2
2017-Mar-16 01:33N 34°29' E 135°13'1110.7
2017-Mar-16 00:33N 34°39' E 135°11'2 2.4
2017-Mar-15 23:33N 34°41' E 135°12'0 0.0
2017-Mar-15 05:04N 34°41' E 135°12'3 5.4
2017-Mar-15 04:33N 34°41' E 135°16'3 3.3
2017-Mar-15 03:33N 34°42' E 135°19'3 3.1
2017-Mar-15 02:33N 34°38' E 135°19'1313.4
2017-Mar-15 01:33N 34°28' E 135°09'7 6.8
2017-Mar-15 00:33N 34°34' E 135°05'10 9.7
2017-Mar-14 23:33N 34°41' E 135°12'3 0.2
2017-Mar-14 05:33N 34°40' E 135°15'7 6.7
2017-Mar-14 04:33N 34°36' E 135°08'10 9.7
2017-Mar-14 03:32N 34°29' E 135°00'6 6.6
2017-Mar-14 02:33N 34°30' E 135°08'7 6.8
2017-Mar-14 01:32N 34°30' E 135°16'8 8.4
2017-Mar-14 00:33N 34°37' E 135°20'6 6.4
2017-Mar-13 23:33N 34°41' E 135°14'2 1.6
2017-Mar-13 22:33N 34°41' E 135°12'  
2017-Mar-10 05:33N 34°40' E 135°12'9 8.8
2017-Mar-10 04:33N 34°32' E 135°15'5 4.8
2017-Mar-10 03:31N 34°32' E 135°21'3 2.5
2017-Mar-10 02:29N 34°30' E 135°19'8 7.5
2017-Mar-10 01:24N 34°28' E 135°10'1112.4
2017-Mar-10 00:33N 34°39' E 135°11'3 2.7
2017-Mar-09 23:33N 34°41' E 135°12'0 0.0
2017-Mar-09 05:11N 34°41' E 135°12'3 5.0
2017-Mar-09 04:33N 34°41' E 135°16'3 3.1
2017-Mar-09 03:33N 34°41' E 135°20'3 3.0
2017-Mar-09 02:33N 34°41' E 135°16'4 4.2
2017-Mar-09 01:33N 34°38' E 135°20'8 7.4
2017-Mar-09 00:33N 34°39' E 135°11'3 0.1
2017-Mar-08 05:10N 34°41' E 135°12'3 5.1
2017-Mar-08 04:33N 34°41' E 135°16'3 3.4
2017-Mar-08 03:33N 34°41' E 135°20'2 1.8
2017-Mar-08 02:33N 34°40' E 135°19'1211.7
2017-Mar-08 01:33N 34°29' E 135°14'1110.6
2017-Mar-08 00:33N 34°39' E 135°11'2 2.3
2017-Mar-07 23:33N 34°41' E 135°12'0 0.0
2017-Mar-07 04:24N 34°41' E 135°12'6 7.6
2017-Mar-07 03:33N 34°41' E 135°20'0 0.0
2017-Mar-07 02:33N 34°41' E 135°20'3 2.6
2017-Mar-07 01:33N 34°39' E 135°19'6 6.3
2017-Mar-07 00:33N 34°41' E 135°12'  

Dump ship's entire track history